sensor_id;sensor_type;location;lat;lon;timestamp;P1;durP1;ratioP1;P2;durP2;ratioP2
71626;SDS011;59475;52.464;13.590;2023-08-24T00:00:40;9.05;;;5.72;;
71626;SDS011;59475;52.464;13.590;2023-08-24T00:03:06;7.38;;;5.80;;
71626;SDS011;59475;52.464;13.590;2023-08-24T00:05:37;9.90;;;5.60;;
71626;SDS011;59475;52.464;13.590;2023-08-24T00:08:07;7.30;;;5.35;;
71626;SDS011;59475;52.464;13.590;2023-08-24T00:10:33;6.68;;;5.40;;
71626;SDS011;59475;52.464;13.590;2023-08-24T00:12:59;8.25;;;5.60;;
71626;SDS011;59475;52.464;13.590;2023-08-24T00:15:25;7.77;;;5.40;;
71626;SDS011;59475;52.464;13.590;2023-08-24T00:17:51;8.15;;;5.78;;
71626;SDS011;59475;52.464;13.590;2023-08-24T00:20:16;5.90;;;5.30;;
71626;SDS011;59475;52.464;13.590;2023-08-24T00:22:41;7.87;;;5.70;;
71626;SDS011;59475;52.464;13.590;2023-08-24T00:25:07;7.68;;;5.70;;
71626;SDS011;59475;52.464;13.590;2023-08-24T00:27:33;7.35;;;5.43;;
71626;SDS011;59475;52.464;13.590;2023-08-24T00:30:00;9.20;;;5.47;;
71626;SDS011;59475;52.464;13.590;2023-08-24T00:32:28;9.02;;;5.80;;
71626;SDS011;59475;52.464;13.590;2023-08-24T00:34:53;7.37;;;5.90;;
71626;SDS011;59475;52.464;13.590;2023-08-24T00:37:18;6.80;;;5.57;;
71626;SDS011;59475;52.464;13.590;2023-08-24T00:39:44;9.30;;;5.37;;
71626;SDS011;59475;52.464;13.590;2023-08-24T00:42:09;7.43;;;5.67;;
71626;SDS011;59475;52.464;13.590;2023-08-24T00:44:39;8.60;;;5.80;;
71626;SDS011;59475;52.464;13.590;2023-08-24T00:47:05;7.33;;;6.10;;
71626;SDS011;59475;52.464;13.590;2023-08-24T00:49:31;11.13;;;6.15;;
71626;SDS011;59475;52.464;13.590;2023-08-24T00:51:56;7.67;;;5.77;;
71626;SDS011;59475;52.464;13.590;2023-08-24T00:54:22;7.80;;;6.07;;
71626;SDS011;59475;52.464;13.590;2023-08-24T00:56:48;8.52;;;6.50;;
71626;SDS011;59475;52.464;13.590;2023-08-24T00:59:13;9.13;;;5.70;;
71626;SDS011;59475;52.464;13.590;2023-08-24T01:01:39;6.77;;;5.77;;
71626;SDS011;59475;52.464;13.590;2023-08-24T01:04:06;9.88;;;6.43;;
71626;SDS011;59475;52.464;13.590;2023-08-24T01:06:32;10.75;;;6.30;;
71626;SDS011;59475;52.464;13.590;2023-08-24T01:08:57;7.37;;;5.97;;
71626;SDS011;59475;52.464;13.590;2023-08-24T01:16:31;11.48;;;6.55;;
71626;SDS011;59475;52.464;13.590;2023-08-24T01:18:58;7.57;;;6.13;;
71626;SDS011;59475;52.464;13.590;2023-08-24T01:21:26;9.15;;;6.22;;
71626;SDS011;59475;52.464;13.590;2023-08-24T01:26:28;10.75;;;6.35;;
71626;SDS011;59475;52.464;13.590;2023-08-24T01:28:54;8.27;;;5.77;;
71626;SDS011;59475;52.464;13.590;2023-08-24T01:31:20;8.23;;;6.43;;
71626;SDS011;59475;52.464;13.590;2023-08-24T01:33:45;8.63;;;5.80;;
71626;SDS011;59475;52.464;13.590;2023-08-24T01:36:12;8.47;;;5.80;;
71626;SDS011;59475;52.464;13.590;2023-08-24T01:38:41;7.28;;;5.75;;
71626;SDS011;59475;52.464;13.590;2023-08-24T01:41:18;9.27;;;6.30;;
71626;SDS011;59475;52.464;13.590;2023-08-24T01:43:49;7.45;;;5.90;;
71626;SDS011;59475;52.464;13.590;2023-08-24T01:46:18;8.27;;;5.88;;
71626;SDS011;59475;52.464;13.590;2023-08-24T01:48:46;7.03;;;5.63;;
71626;SDS011;59475;52.464;13.590;2023-08-24T01:51:12;9.05;;;6.60;;
71626;SDS011;59475;52.464;13.590;2023-08-24T01:53:39;8.32;;;6.85;;
71626;SDS011;59475;52.464;13.590;2023-08-24T01:56:12;7.38;;;5.93;;
71626;SDS011;59475;52.464;13.590;2023-08-24T01:58:38;9.02;;;6.20;;
71626;SDS011;59475;52.464;13.590;2023-08-24T02:01:04;7.80;;;6.10;;
71626;SDS011;59475;52.464;13.590;2023-08-24T02:03:30;9.60;;;6.35;;
71626;SDS011;59475;52.464;13.590;2023-08-24T02:05:56;7.07;;;6.13;;
71626;SDS011;59475;52.464;13.590;2023-08-24T02:08:21;8.57;;;6.43;;
71626;SDS011;59475;52.464;13.590;2023-08-24T02:10:46;9.60;;;5.93;;
71626;SDS011;59475;52.464;13.590;2023-08-24T02:13:12;7.80;;;6.23;;
71626;SDS011;59475;52.464;13.590;2023-08-24T02:15:37;8.77;;;6.13;;
71626;SDS011;59475;52.464;13.590;2023-08-24T02:18:04;8.55;;;6.13;;
71626;SDS011;59475;52.464;13.590;2023-08-24T02:20:29;7.77;;;5.63;;
71626;SDS011;59475;52.464;13.590;2023-08-24T02:22:55;8.75;;;6.22;;
71626;SDS011;59475;52.464;13.590;2023-08-24T02:25:20;7.07;;;6.10;;
71626;SDS011;59475;52.464;13.590;2023-08-24T02:27:45;9.13;;;6.30;;
71626;SDS011;59475;52.464;13.590;2023-08-24T02:30:11;8.33;;;6.17;;
71626;SDS011;59475;52.464;13.590;2023-08-24T02:32:37;7.65;;;6.28;;
71626;SDS011;59475;52.464;13.590;2023-08-24T02:35:03;9.50;;;6.13;;
71626;SDS011;59475;52.464;13.590;2023-08-24T02:37:28;9.35;;;6.32;;
71626;SDS011;59475;52.464;13.590;2023-08-24T02:39:54;9.20;;;6.17;;
71626;SDS011;59475;52.464;13.590;2023-08-24T02:42:19;10.47;;;5.93;;
71626;SDS011;59475;52.464;13.590;2023-08-24T02:44:44;9.07;;;6.63;;
71626;SDS011;59475;52.464;13.590;2023-08-24T02:47:10;8.38;;;6.30;;
71626;SDS011;59475;52.464;13.590;2023-08-24T02:49:35;9.53;;;6.30;;
71626;SDS011;59475;52.464;13.590;2023-08-24T02:52:00;9.77;;;6.07;;
71626;SDS011;59475;52.464;13.590;2023-08-24T02:54:26;9.60;;;6.67;;
71626;SDS011;59475;52.464;13.590;2023-08-24T02:56:51;7.90;;;5.97;;
71626;SDS011;59475;52.464;13.590;2023-08-24T02:59:16;10.80;;;6.07;;
71626;SDS011;59475;52.464;13.590;2023-08-24T03:01:42;7.37;;;5.57;;
71626;SDS011;59475;52.464;13.590;2023-08-24T03:04:07;7.77;;;6.30;;
71626;SDS011;59475;52.464;13.590;2023-08-24T03:06:32;7.80;;;5.70;;
71626;SDS011;59475;52.464;13.590;2023-08-24T03:08:59;9.10;;;6.73;;
71626;SDS011;59475;52.464;13.590;2023-08-24T03:11:26;10.00;;;5.90;;
71626;SDS011;59475;52.464;13.590;2023-08-24T03:13:51;9.03;;;6.07;;
71626;SDS011;59475;52.464;13.590;2023-08-24T03:16:16;6.67;;;5.97;;
71626;SDS011;59475;52.464;13.590;2023-08-24T03:18:42;6.30;;;5.67;;
71626;SDS011;59475;52.464;13.590;2023-08-24T03:21:07;9.03;;;5.63;;
71626;SDS011;59475;52.464;13.590;2023-08-24T03:23:32;7.40;;;5.65;;
71626;SDS011;59475;52.464;13.590;2023-08-24T03:25:58;10.40;;;6.20;;
71626;SDS011;59475;52.464;13.590;2023-08-24T03:28:23;6.33;;;5.57;;
71626;SDS011;59475;52.464;13.590;2023-08-24T03:30:49;8.37;;;6.10;;
71626;SDS011;59475;52.464;13.590;2023-08-24T03:33:17;7.45;;;5.85;;
71626;SDS011;59475;52.464;13.590;2023-08-24T03:35:42;9.73;;;6.33;;
71626;SDS011;59475;52.464;13.590;2023-08-24T03:38:08;8.85;;;6.30;;
71626;SDS011;59475;52.464;13.590;2023-08-24T03:40:34;7.93;;;5.85;;
71626;SDS011;59475;52.464;13.590;2023-08-24T03:43:00;6.73;;;5.50;;
71626;SDS011;59475;52.464;13.590;2023-08-24T03:45:27;9.52;;;5.70;;
71626;SDS011;59475;52.464;13.590;2023-08-24T03:47:52;8.67;;;5.90;;
71626;SDS011;59475;52.464;13.590;2023-08-24T03:50:18;10.03;;;6.30;;
71626;SDS011;59475;52.464;13.590;2023-08-24T03:52:43;9.87;;;5.70;;
71626;SDS011;59475;52.464;13.590;2023-08-24T03:55:08;9.23;;;5.32;;
71626;SDS011;59475;52.464;13.590;2023-08-24T03:57:34;6.80;;;5.87;;
71626;SDS011;59475;52.464;13.590;2023-08-24T04:00:00;9.37;;;5.47;;
71626;SDS011;59475;52.464;13.590;2023-08-24T04:02:25;7.47;;;5.50;;
71626;SDS011;59475;52.464;13.590;2023-08-24T04:04:51;6.13;;;5.35;;
71626;SDS011;59475;52.464;13.590;2023-08-24T04:07:17;7.63;;;5.97;;
71626;SDS011;59475;52.464;13.590;2023-08-24T04:09:43;6.93;;;5.87;;
71626;SDS011;59475;52.464;13.590;2023-08-24T04:12:08;11.43;;;6.33;;
71626;SDS011;59475;52.464;13.590;2023-08-24T04:14:33;8.63;;;5.77;;
71626;SDS011;59475;52.464;13.590;2023-08-24T04:17:00;7.72;;;5.47;;
71626;SDS011;59475;52.464;13.590;2023-08-24T04:19:25;8.13;;;5.53;;
71626;SDS011;59475;52.464;13.590;2023-08-24T04:21:51;8.33;;;5.67;;
71626;SDS011;59475;52.464;13.590;2023-08-24T04:24:16;7.53;;;5.60;;
71626;SDS011;59475;52.464;13.590;2023-08-24T04:26:41;7.57;;;5.53;;
71626;SDS011;59475;52.464;13.590;2023-08-24T04:29:07;5.90;;;5.30;;
71626;SDS011;59475;52.464;13.590;2023-08-24T04:31:32;6.33;;;5.20;;
71626;SDS011;59475;52.464;13.590;2023-08-24T04:33:58;8.63;;;5.43;;
71626;SDS011;59475;52.464;13.590;2023-08-24T04:36:23;6.50;;;5.27;;
71626;SDS011;59475;52.464;13.590;2023-08-24T04:38:48;7.70;;;5.73;;
71626;SDS011;59475;52.464;13.590;2023-08-24T04:41:14;6.70;;;5.15;;
71626;SDS011;59475;52.464;13.590;2023-08-24T04:43:39;7.10;;;5.60;;
71626;SDS011;59475;52.464;13.590;2023-08-24T04:46:04;7.10;;;5.50;;
71626;SDS011;59475;52.464;13.590;2023-08-24T04:48:30;8.83;;;5.60;;
71626;SDS011;59475;52.464;13.590;2023-08-24T04:50:58;9.77;;;6.55;;
71626;SDS011;59475;52.464;13.590;2023-08-24T04:53:23;7.93;;;5.10;;
71626;SDS011;59475;52.464;13.590;2023-08-24T04:55:49;6.10;;;5.50;;
71626;SDS011;59475;52.464;13.590;2023-08-24T04:58:15;8.32;;;5.57;;
71626;SDS011;59475;52.464;13.590;2023-08-24T05:00:41;8.27;;;5.68;;
71626;SDS011;59475;52.464;13.590;2023-08-24T05:03:07;6.87;;;5.57;;
71626;SDS011;59475;52.464;13.590;2023-08-24T05:05:33;6.55;;;5.10;;
71626;SDS011;59475;52.464;13.590;2023-08-24T05:07:59;7.57;;;5.57;;
71626;SDS011;59475;52.464;13.590;2023-08-24T05:10:29;8.98;;;5.50;;
71626;SDS011;59475;52.464;13.590;2023-08-24T05:12:55;7.63;;;5.50;;
71626;SDS011;59475;52.464;13.590;2023-08-24T05:15:21;8.15;;;5.38;;
71626;SDS011;59475;52.464;13.590;2023-08-24T05:17:46;12.00;;;5.07;;
71626;SDS011;59475;52.464;13.590;2023-08-24T05:20:11;7.07;;;5.23;;
71626;SDS011;59475;52.464;13.590;2023-08-24T05:22:37;9.00;;;5.53;;
71626;SDS011;59475;52.464;13.590;2023-08-24T05:25:05;6.47;;;5.22;;
71626;SDS011;59475;52.464;13.590;2023-08-24T05:27:31;8.00;;;5.60;;
71626;SDS011;59475;52.464;13.590;2023-08-24T05:29:57;6.70;;;6.00;;
71626;SDS011;59475;52.464;13.590;2023-08-24T05:32:23;8.95;;;5.63;;
71626;SDS011;59475;52.464;13.590;2023-08-24T05:34:48;7.67;;;5.23;;
71626;SDS011;59475;52.464;13.590;2023-08-24T05:37:14;6.13;;;5.50;;
71626;SDS011;59475;52.464;13.590;2023-08-24T05:39:39;8.07;;;5.37;;
71626;SDS011;59475;52.464;13.590;2023-08-24T05:42:05;5.83;;;5.23;;
71626;SDS011;59475;52.464;13.590;2023-08-24T05:44:30;6.88;;;5.45;;
71626;SDS011;59475;52.464;13.590;2023-08-24T05:46:56;7.40;;;5.23;;
71626;SDS011;59475;52.464;13.590;2023-08-24T05:49:21;7.72;;;5.72;;
71626;SDS011;59475;52.464;13.590;2023-08-24T05:51:49;9.13;;;5.60;;
71626;SDS011;59475;52.464;13.590;2023-08-24T05:54:15;6.70;;;5.07;;
71626;SDS011;59475;52.464;13.590;2023-08-24T05:56:43;7.80;;;5.20;;
71626;SDS011;59475;52.464;13.590;2023-08-24T05:59:09;8.52;;;5.53;;
71626;SDS011;59475;52.464;13.590;2023-08-24T06:01:34;7.87;;;5.20;;
71626;SDS011;59475;52.464;13.590;2023-08-24T06:04:03;11.23;;;4.75;;
71626;SDS011;59475;52.464;13.590;2023-08-24T06:06:32;10.50;;;4.60;;
71626;SDS011;59475;52.464;13.590;2023-08-24T06:08:58;9.77;;;4.20;;
71626;SDS011;59475;52.464;13.590;2023-08-24T06:11:23;5.47;;;3.77;;
71626;SDS011;59475;52.464;13.590;2023-08-24T06:13:49;11.25;;;4.22;;
71626;SDS011;59475;52.464;13.590;2023-08-24T06:16:14;10.70;;;3.77;;
71626;SDS011;59475;52.464;13.590;2023-08-24T06:18:40;7.50;;;4.05;;
71626;SDS011;59475;52.464;13.590;2023-08-24T06:21:05;8.57;;;3.57;;
71626;SDS011;59475;52.464;13.590;2023-08-24T06:23:30;5.10;;;3.57;;
71626;SDS011;59475;52.464;13.590;2023-08-24T06:25:56;10.67;;;3.27;;
71626;SDS011;59475;52.464;13.590;2023-08-24T06:28:21;6.30;;;3.70;;
71626;SDS011;59475;52.464;13.590;2023-08-24T06:30:47;6.18;;;3.50;;
71626;SDS011;59475;52.464;13.590;2023-08-24T06:33:12;8.90;;;3.70;;
71626;SDS011;59475;52.464;13.590;2023-08-24T06:35:38;6.95;;;3.78;;
71626;SDS011;59475;52.464;13.590;2023-08-24T06:38:04;6.50;;;3.17;;
71626;SDS011;59475;52.464;13.590;2023-08-24T06:40:29;5.40;;;3.10;;
71626;SDS011;59475;52.464;13.590;2023-08-24T06:42:55;9.47;;;3.00;;
71626;SDS011;59475;52.464;13.590;2023-08-24T06:45:21;5.03;;;2.88;;
71626;SDS011;59475;52.464;13.590;2023-08-24T06:47:46;4.43;;;2.77;;
71626;SDS011;59475;52.464;13.590;2023-08-24T06:50:12;5.27;;;2.77;;
71626;SDS011;59475;52.464;13.590;2023-08-24T06:52:37;5.20;;;2.92;;
71626;SDS011;59475;52.464;13.590;2023-08-24T06:55:03;4.73;;;2.60;;
71626;SDS011;59475;52.464;13.590;2023-08-24T06:57:29;9.32;;;3.05;;
71626;SDS011;59475;52.464;13.590;2023-08-24T06:59:54;5.13;;;2.70;;
71626;SDS011;59475;52.464;13.590;2023-08-24T07:02:20;4.90;;;2.80;;
71626;SDS011;59475;52.464;13.590;2023-08-24T07:04:45;7.45;;;2.72;;
71626;SDS011;59475;52.464;13.590;2023-08-24T07:07:11;5.13;;;2.67;;
71626;SDS011;59475;52.464;13.590;2023-08-24T07:09:37;3.50;;;2.43;;
71626;SDS011;59475;52.464;13.590;2023-08-24T07:12:02;4.70;;;2.40;;
71626;SDS011;59475;52.464;13.590;2023-08-24T07:14:31;6.30;;;2.50;;
71626;SDS011;59475;52.464;13.590;2023-08-24T07:16:57;2.43;;;1.87;;
71626;SDS011;59475;52.464;13.590;2023-08-24T07:19:22;3.47;;;2.15;;
71626;SDS011;59475;52.464;13.590;2023-08-24T07:21:48;2.63;;;1.90;;
71626;SDS011;59475;52.464;13.590;2023-08-24T07:24:13;4.73;;;2.20;;
71626;SDS011;59475;52.464;13.590;2023-08-24T07:26:40;6.40;;;2.20;;
71626;SDS011;59475;52.464;13.590;2023-08-24T07:29:06;4.32;;;2.28;;
71626;SDS011;59475;52.464;13.590;2023-08-24T07:31:32;3.60;;;2.00;;
71626;SDS011;59475;52.464;13.590;2023-08-24T07:33:57;4.63;;;2.17;;
71626;SDS011;59475;52.464;13.590;2023-08-24T07:36:23;4.38;;;2.40;;
71626;SDS011;59475;52.464;13.590;2023-08-24T07:38:49;5.67;;;2.60;;
71626;SDS011;59475;52.464;13.590;2023-08-24T07:41:14;4.70;;;2.10;;
71626;SDS011;59475;52.464;13.590;2023-08-24T07:43:42;4.30;;;2.38;;
71626;SDS011;59475;52.464;13.590;2023-08-24T07:46:08;4.72;;;2.00;;
71626;SDS011;59475;52.464;13.590;2023-08-24T07:48:33;3.00;;;2.00;;
71626;SDS011;59475;52.464;13.590;2023-08-24T07:50:58;4.57;;;2.30;;
71626;SDS011;59475;52.464;13.590;2023-08-24T07:53:24;3.13;;;1.70;;
71626;SDS011;59475;52.464;13.590;2023-08-24T07:55:49;4.90;;;2.25;;
71626;SDS011;59475;52.464;13.590;2023-08-24T07:58:14;5.40;;;2.70;;
71626;SDS011;59475;52.464;13.590;2023-08-24T08:00:40;5.20;;;2.73;;
71626;SDS011;59475;52.464;13.590;2023-08-24T08:03:05;3.73;;;2.63;;
71626;SDS011;59475;52.464;13.590;2023-08-24T08:05:31;4.68;;;2.40;;
71626;SDS011;59475;52.464;13.590;2023-08-24T08:07:57;5.47;;;2.70;;
71626;SDS011;59475;52.464;13.590;2023-08-24T08:10:22;4.30;;;2.40;;
71626;SDS011;59475;52.464;13.590;2023-08-24T08:12:47;6.03;;;2.95;;
71626;SDS011;59475;52.464;13.590;2023-08-24T08:15:13;5.63;;;2.23;;
71626;SDS011;59475;52.464;13.590;2023-08-24T08:17:39;3.27;;;2.43;;
71626;SDS011;59475;52.464;13.590;2023-08-24T08:20:04;5.03;;;2.45;;
71626;SDS011;59475;52.464;13.590;2023-08-24T08:22:30;3.97;;;2.25;;
71626;SDS011;59475;52.464;13.590;2023-08-24T08:25:00;4.70;;;2.40;;
71626;SDS011;59475;52.464;13.590;2023-08-24T08:27:26;4.53;;;2.58;;
71626;SDS011;59475;52.464;13.590;2023-08-24T08:29:52;3.20;;;2.30;;
71626;SDS011;59475;52.464;13.590;2023-08-24T08:32:17;4.55;;;2.50;;
71626;SDS011;59475;52.464;13.590;2023-08-24T08:34:43;4.00;;;2.30;;
71626;SDS011;59475;52.464;13.590;2023-08-24T08:37:08;6.10;;;2.70;;
71626;SDS011;59475;52.464;13.590;2023-08-24T08:39:34;4.40;;;2.47;;
71626;SDS011;59475;52.464;13.590;2023-08-24T08:41:59;5.97;;;2.30;;
71626;SDS011;59475;52.464;13.590;2023-08-24T08:44:26;7.10;;;2.03;;
71626;SDS011;59475;52.464;13.590;2023-08-24T08:46:56;5.40;;;2.20;;
71626;SDS011;59475;52.464;13.590;2023-08-24T08:49:22;6.97;;;2.45;;
71626;SDS011;59475;52.464;13.590;2023-08-24T08:51:48;3.58;;;2.50;;
71626;SDS011;59475;52.464;13.590;2023-08-24T08:54:16;5.88;;;2.20;;
71626;SDS011;59475;52.464;13.590;2023-08-24T08:56:41;4.60;;;2.07;;
71626;SDS011;59475;52.464;13.590;2023-08-24T08:59:08;4.00;;;2.10;;
71626;SDS011;59475;52.464;13.590;2023-08-24T09:01:34;6.50;;;2.40;;
71626;SDS011;59475;52.464;13.590;2023-08-24T09:03:59;4.60;;;2.50;;
71626;SDS011;59475;52.464;13.590;2023-08-24T09:06:26;4.95;;;2.22;;
71626;SDS011;59475;52.464;13.590;2023-08-24T09:08:51;3.97;;;2.10;;
71626;SDS011;59475;52.464;13.590;2023-08-24T09:11:17;8.15;;;2.38;;
71626;SDS011;59475;52.464;13.590;2023-08-24T09:13:43;5.30;;;2.20;;
71626;SDS011;59475;52.464;13.590;2023-08-24T09:16:10;5.17;;;2.20;;
71626;SDS011;59475;52.464;13.590;2023-08-24T09:18:41;5.43;;;2.15;;
71626;SDS011;59475;52.464;13.590;2023-08-24T09:21:08;4.35;;;1.98;;
71626;SDS011;59475;52.464;13.590;2023-08-24T09:23:34;4.53;;;2.28;;
71626;SDS011;59475;52.464;13.590;2023-08-24T09:26:00;2.70;;;1.90;;
71626;SDS011;59475;52.464;13.590;2023-08-24T09:28:25;3.87;;;2.00;;
71626;SDS011;59475;52.464;13.590;2023-08-24T09:30:53;4.68;;;2.35;;
71626;SDS011;59475;52.464;13.590;2023-08-24T09:33:22;4.80;;;2.13;;
71626;SDS011;59475;52.464;13.590;2023-08-24T09:35:53;4.55;;;2.08;;
71626;SDS011;59475;52.464;13.590;2023-08-24T09:38:23;4.50;;;2.17;;
71626;SDS011;59475;52.464;13.590;2023-08-24T09:40:52;5.82;;;2.13;;
71626;SDS011;59475;52.464;13.590;2023-08-24T09:43:18;4.20;;;2.25;;
71626;SDS011;59475;52.464;13.590;2023-08-24T09:45:50;3.87;;;1.60;;
71626;SDS011;59475;52.464;13.590;2023-08-24T09:48:16;4.00;;;2.20;;
71626;SDS011;59475;52.464;13.590;2023-08-24T09:50:42;4.07;;;2.40;;
71626;SDS011;59475;52.464;13.590;2023-08-24T09:53:11;4.20;;;2.40;;
71626;SDS011;59475;52.464;13.590;2023-08-24T09:55:52;6.32;;;2.30;;
71626;SDS011;59475;52.464;13.590;2023-08-24T09:58:19;5.53;;;1.83;;
71626;SDS011;59475;52.464;13.590;2023-08-24T10:00:45;4.28;;;2.05;;
71626;SDS011;59475;52.464;13.590;2023-08-24T10:03:13;3.35;;;2.20;;
71626;SDS011;59475;52.464;13.590;2023-08-24T10:05:45;3.47;;;1.77;;
71626;SDS011;59475;52.464;13.590;2023-08-24T10:08:12;5.03;;;1.80;;
71626;SDS011;59475;52.464;13.590;2023-08-24T10:10:40;4.50;;;1.38;;
71626;SDS011;59475;52.464;13.590;2023-08-24T10:13:08;4.53;;;1.73;;
71626;SDS011;59475;52.464;13.590;2023-08-24T10:15:41;4.72;;;1.83;;
71626;SDS011;59475;52.464;13.590;2023-08-24T10:18:11;3.17;;;1.77;;
71626;SDS011;59475;52.464;13.590;2023-08-24T10:20:38;5.45;;;1.95;;
71626;SDS011;59475;52.464;13.590;2023-08-24T10:23:04;5.70;;;1.70;;
71626;SDS011;59475;52.464;13.590;2023-08-24T10:25:29;5.27;;;1.63;;
71626;SDS011;59475;52.464;13.590;2023-08-24T10:27:55;6.50;;;1.53;;
71626;SDS011;59475;52.464;13.590;2023-08-24T10:30:22;2.90;;;1.67;;
71626;SDS011;59475;52.464;13.590;2023-08-24T10:32:48;2.28;;;1.70;;
71626;SDS011;59475;52.464;13.590;2023-08-24T10:35:18;4.15;;;1.80;;
71626;SDS011;59475;52.464;13.590;2023-08-24T10:37:45;2.80;;;1.65;;
71626;SDS011;59475;52.464;13.590;2023-08-24T10:40:11;7.38;;;1.60;;
71626;SDS011;59475;52.464;13.590;2023-08-24T10:42:44;4.57;;;1.67;;
71626;SDS011;59475;52.464;13.590;2023-08-24T10:45:14;3.60;;;1.65;;
71626;SDS011;59475;52.464;13.590;2023-08-24T10:47:46;2.33;;;1.40;;
71626;SDS011;59475;52.464;13.590;2023-08-24T10:50:12;5.07;;;1.50;;
71626;SDS011;59475;52.464;13.590;2023-08-24T10:52:38;4.50;;;1.60;;
71626;SDS011;59475;52.464;13.590;2023-08-24T10:55:24;3.67;;;1.50;;
71626;SDS011;59475;52.464;13.590;2023-08-24T10:57:57;6.25;;;1.60;;
71626;SDS011;59475;52.464;13.590;2023-08-24T11:00:28;5.07;;;1.60;;
71626;SDS011;59475;52.464;13.590;2023-08-24T11:02:55;4.55;;;1.70;;
71626;SDS011;59475;52.464;13.590;2023-08-24T11:05:26;2.78;;;1.50;;
71626;SDS011;59475;52.464;13.590;2023-08-24T11:08:01;3.73;;;1.60;;
71626;SDS011;59475;52.464;13.590;2023-08-24T11:15:37;6.07;;;2.13;;
71626;SDS011;59475;52.464;13.590;2023-08-24T11:23:18;5.00;;;2.35;;
71626;SDS011;59475;52.464;13.590;2023-08-24T11:25:45;4.82;;;2.35;;
71626;SDS011;59475;52.464;13.590;2023-08-24T11:28:16;4.20;;;2.28;;
71626;SDS011;59475;52.464;13.590;2023-08-24T11:30:42;4.75;;;2.10;;
71626;SDS011;59475;52.464;13.590;2023-08-24T11:33:08;2.90;;;2.03;;
71626;SDS011;59475;52.464;13.590;2023-08-24T11:35:36;5.70;;;2.33;;
71626;SDS011;59475;52.464;13.590;2023-08-24T11:38:02;5.15;;;2.40;;
71626;SDS011;59475;52.464;13.590;2023-08-24T11:40:28;5.07;;;2.72;;
71626;SDS011;59475;52.464;13.590;2023-08-24T11:42:54;5.53;;;2.60;;
71626;SDS011;59475;52.464;13.590;2023-08-24T11:45:20;4.88;;;2.17;;
71626;SDS011;59475;52.464;13.590;2023-08-24T11:47:46;3.10;;;2.03;;
71626;SDS011;59475;52.464;13.590;2023-08-24T11:50:13;4.45;;;2.30;;
71626;SDS011;59475;52.464;13.590;2023-08-24T11:52:39;6.17;;;2.20;;
71626;SDS011;59475;52.464;13.590;2023-08-24T11:55:05;6.57;;;2.78;;
71626;SDS011;59475;52.464;13.590;2023-08-24T11:57:35;5.38;;;2.33;;
71626;SDS011;59475;52.464;13.590;2023-08-24T12:00:02;3.77;;;2.30;;
71626;SDS011;59475;52.464;13.590;2023-08-24T12:02:29;4.60;;;2.50;;
71626;SDS011;59475;52.464;13.590;2023-08-24T12:04:55;7.43;;;2.42;;
71626;SDS011;59475;52.464;13.590;2023-08-24T12:07:21;5.93;;;2.40;;
71626;SDS011;59475;52.464;13.590;2023-08-24T12:09:46;6.63;;;2.00;;
71626;SDS011;59475;52.464;13.590;2023-08-24T12:12:15;6.27;;;2.47;;
71626;SDS011;59475;52.464;13.590;2023-08-24T12:14:44;4.45;;;2.60;;
71626;SDS011;59475;52.464;13.590;2023-08-24T12:17:12;5.13;;;2.63;;
71626;SDS011;59475;52.464;13.590;2023-08-24T12:19:57;3.58;;;2.15;;
71626;SDS011;59475;52.464;13.590;2023-08-24T12:22:31;6.27;;;2.40;;
71626;SDS011;59475;52.464;13.590;2023-08-24T12:24:56;5.95;;;2.58;;
71626;SDS011;59475;52.464;13.590;2023-08-24T12:27:23;7.23;;;2.47;;
71626;SDS011;59475;52.464;13.590;2023-08-24T12:29:49;5.40;;;2.83;;
71626;SDS011;59475;52.464;13.590;2023-08-24T12:32:16;8.05;;;2.65;;
71626;SDS011;59475;52.464;13.590;2023-08-24T12:34:44;7.38;;;2.75;;
71626;SDS011;59475;52.464;13.590;2023-08-24T12:37:10;6.25;;;2.60;;
71626;SDS011;59475;52.464;13.590;2023-08-24T12:39:36;6.53;;;2.53;;
71626;SDS011;59475;52.464;13.590;2023-08-24T12:42:03;7.05;;;2.88;;
71626;SDS011;59475;52.464;13.590;2023-08-24T12:44:28;3.40;;;2.70;;
71626;SDS011;59475;52.464;13.590;2023-08-24T12:46:54;5.27;;;2.47;;
71626;SDS011;59475;52.464;13.590;2023-08-24T12:49:19;5.97;;;2.50;;
71626;SDS011;59475;52.464;13.590;2023-08-24T12:51:44;5.50;;;2.80;;
71626;SDS011;59475;52.464;13.590;2023-08-24T12:54:10;4.13;;;2.50;;
71626;SDS011;59475;52.464;13.590;2023-08-24T12:56:38;7.55;;;2.35;;
71626;SDS011;59475;52.464;13.590;2023-08-24T12:59:06;5.97;;;2.70;;
71626;SDS011;59475;52.464;13.590;2023-08-24T13:01:33;4.70;;;2.67;;
71626;SDS011;59475;52.464;13.590;2023-08-24T13:03:59;3.20;;;2.17;;
71626;SDS011;59475;52.464;13.590;2023-08-24T13:06:24;6.57;;;2.67;;
71626;SDS011;59475;52.464;13.590;2023-08-24T13:08:50;4.00;;;2.33;;
71626;SDS011;59475;52.464;13.590;2023-08-24T13:11:17;3.70;;;2.10;;
71626;SDS011;59475;52.464;13.590;2023-08-24T13:13:43;3.60;;;2.20;;
71626;SDS011;59475;52.464;13.590;2023-08-24T13:16:10;4.78;;;2.30;;
71626;SDS011;59475;52.464;13.590;2023-08-24T13:18:36;4.30;;;2.10;;
71626;SDS011;59475;52.464;13.590;2023-08-24T13:21:01;8.35;;;2.42;;
71626;SDS011;59475;52.464;13.590;2023-08-24T13:23:26;5.03;;;2.40;;
71626;SDS011;59475;52.464;13.590;2023-08-24T13:25:52;5.27;;;2.43;;
71626;SDS011;59475;52.464;13.590;2023-08-24T13:28:18;4.90;;;2.42;;
71626;SDS011;59475;52.464;13.590;2023-08-24T13:30:43;4.73;;;2.40;;
71626;SDS011;59475;52.464;13.590;2023-08-24T13:33:08;3.07;;;2.33;;
71626;SDS011;59475;52.464;13.590;2023-08-24T13:35:34;3.25;;;2.15;;
71626;SDS011;59475;52.464;13.590;2023-08-24T13:37:59;3.47;;;2.17;;
71626;SDS011;59475;52.464;13.590;2023-08-24T13:40:25;3.77;;;2.50;;
71626;SDS011;59475;52.464;13.590;2023-08-24T13:42:50;4.50;;;2.40;;
71626;SDS011;59475;52.464;13.590;2023-08-24T13:45:16;8.18;;;2.05;;
71626;SDS011;59475;52.464;13.590;2023-08-24T13:47:41;4.23;;;2.10;;
71626;SDS011;59475;52.464;13.590;2023-08-24T13:50:06;3.57;;;2.17;;
71626;SDS011;59475;52.464;13.590;2023-08-24T13:52:32;4.97;;;2.25;;
71626;SDS011;59475;52.464;13.590;2023-08-24T13:54:58;3.87;;;2.20;;
71626;SDS011;59475;52.464;13.590;2023-08-24T13:57:24;2.53;;;2.10;;
71626;SDS011;59475;52.464;13.590;2023-08-24T13:59:49;5.80;;;2.47;;
71626;SDS011;59475;52.464;13.590;2023-08-24T14:02:15;3.33;;;2.20;;
71626;SDS011;59475;52.464;13.590;2023-08-24T14:04:40;4.13;;;2.60;;
71626;SDS011;59475;52.464;13.590;2023-08-24T14:07:06;3.07;;;2.50;;
71626;SDS011;59475;52.464;13.590;2023-08-24T14:09:31;3.77;;;2.10;;
71626;SDS011;59475;52.464;13.590;2023-08-24T14:11:58;3.72;;;2.35;;
71626;SDS011;59475;52.464;13.590;2023-08-24T14:14:23;2.87;;;1.90;;
71626;SDS011;59475;52.464;13.590;2023-08-24T14:16:53;6.28;;;2.53;;
71626;SDS011;59475;52.464;13.590;2023-08-24T14:19:19;4.07;;;2.28;;
71626;SDS011;59475;52.464;13.590;2023-08-24T14:21:45;6.10;;;2.00;;
71626;SDS011;59475;52.464;13.590;2023-08-24T14:24:10;3.40;;;2.30;;
71626;SDS011;59475;52.464;13.590;2023-08-24T14:26:35;5.17;;;2.47;;
71626;SDS011;59475;52.464;13.590;2023-08-24T14:29:03;4.72;;;2.25;;
71626;SDS011;59475;52.464;13.590;2023-08-24T14:31:28;5.00;;;2.17;;
71626;SDS011;59475;52.464;13.590;2023-08-24T14:33:54;3.90;;;2.20;;
71626;SDS011;59475;52.464;13.590;2023-08-24T14:36:21;2.92;;;1.90;;
71626;SDS011;59475;52.464;13.590;2023-08-24T14:38:49;2.70;;;2.25;;
71626;SDS011;59475;52.464;13.590;2023-08-24T14:41:15;2.50;;;2.07;;
71626;SDS011;59475;52.464;13.590;2023-08-24T14:43:41;2.55;;;1.70;;
71626;SDS011;59475;52.464;13.590;2023-08-24T14:46:08;5.23;;;2.40;;